• Join FlightAware (Why Join?)
  • Login
  • US Flag 
01:17AM EDT


 

Airport Tracker/Info


-or-


 

Live Flight TrackerFlight Track Log ✈ SKW5631 ✈ 29-Apr-2013 ✈ KAUS - KSFO

Flight Track Log - Related Links

Times and Time Zones

All times are in EDT time to prevent confusion due to time zone crossing. See the SKW5631 flight status page for this flight to view local times or setup timezone preferences in your user account.

Time Position Orientation Groundspeed Altitude Reporting Facility
EDT Latitude Longitude Course Direction KTS MPH feet Rate Location/Type
03:56PM 30.1511 -97.7658 291° West 249 287 4,800  Level Houston Center
03:57PM 30.2122 -97.8228 321° Northwest 274 315 7,100 2,520 Climbing Houston Center
03:58PM 30.2739 -97.8950 315° West 282 325 10,100 2,580 Climbing Houston Center
03:59PM 30.3053 -97.9786 294° West 285 328 12,500 2,220 Climbing Houston Center
04:00PM 30.5349 -98.0045 291° West  Level FlightAware Approximate
04:00PM 30.3464 -98.0481 304° West 287 330 14,700  Level Houston Center
04:01PM 30.5746 -98.1236 291° West  Level FlightAware Approximate
04:01PM 30.4117 -98.1075 322° Northwest 293 337 16,400  Level Houston Center
04:02PM 30.4856 -98.1689 324° Northwest 317 365 17,600 1,440 Climbing Houston Center
04:03PM 30.5800 -98.2478 324° Northwest 348 400 19,400 1,680 Climbing Houston Center
04:04PM 30.6644 -98.3175 325° Northwest 363 418 21,100 1,500 Climbing Houston Center
04:05PM 30.7525 -98.3844 327° Northwest 370 426 22,600 1,260 Climbing Houston Center
04:06PM 30.8378 -98.4622 322° Northwest 382 440 23,800 1,140 Climbing Houston Center
04:07PM 30.9281 -98.5386 324° Northwest 392 451 25,000 1,200 Climbing Houston Center
04:08PM 31.0194 -98.6136 325° Northwest 395 455 26,400 1,200 Climbing Houston Center
04:09PM 31.1106 -98.6897 324° Northwest 398 458 27,500 960 Climbing Houston Center
04:10PM 31.2192 -98.7811 324° Northwest 406 467 28,500 840 Climbing Houston Center
04:11PM 31.3136 -98.8619 324° Northwest 413 475 29,300 840 Climbing Houston Center
04:12PM 31.4111 -98.9436 324° Northwest 422 486 30,300 720 Climbing Houston Center
04:13PM 31.4986 -99.0403 317° Northwest 426 490 30,900 660 Climbing Houston Center
04:14PM 31.5825 -99.1417 314° West 429 494 31,700 780 Climbing Houston Center
04:15PM 31.6633 -99.2414 314° West 425 489 32,500 900 Climbing Fort Worth Center
04:16PM 31.7497 -99.3408 316° Northwest 430 495 33,600 960 Climbing Fort Worth Center
04:17PM 31.8294 -99.4403 313° West 430 495 34,500 780 Climbing Fort Worth Center
04:18PM 31.9114 -99.5400 314° West 425 489 35,200 600 Climbing Fort Worth Center
04:19PM 31.9911 -99.6375 314° West 425 489 35,800 360 Climbing Fort Worth Center
04:20PM 32.0728 -99.7350 315° West 420 483 36,000 60 Climbing Fort Worth Center
04:21PM 32.1544 -99.8403 313° West 425 489 36,000  Level Fort Worth Center
04:22PM 32.2481 -99.9558 314° West 430 495 36,000  Level Fort Worth Center
04:23PM 32.3336 -100.0639 313° West 435 501 36,000  Level Fort Worth Center
04:24PM 32.4189 -100.1672 314° West 435 501 36,000  Level Fort Worth Center
04:25PM 32.5044 -100.2708 314° West 435 501 36,000  Level Fort Worth Center
04:26PM 32.5875 -100.3769 313° West 435 501 36,000  Level Fort Worth Center
04:27PM 32.6706 -100.4786 314° West 435 501 36,000  Level Fort Worth Center
04:28PM 32.7536 -100.5825 314° West 435 501 36,000  Level Fort Worth Center
04:29PM 32.8364 -100.6869 313° West 435 501 36,000  Level Fort Worth Center
04:30PM 32.9172 -100.7889 313° West 429 494 36,000  Level Fort Worth Center
04:31PM 32.9981 -100.8908 313° West 429 494 36,000  Level Fort Worth Center
04:32PM 33.0625 -100.9728 313° West 429 494 36,000  Level Fort Worth Center
04:33PM 33.1614 -101.0933 314° West 429 494 36,000  Level Fort Worth Center
04:34PM 33.2436 -101.1986 313° West 424 488 36,000  Level Fort Worth Center
04:35PM 33.3242 -101.2992 314° West 424 488 36,000  Level Fort Worth Center
04:36PM 33.4022 -101.4069 311° West 424 488 36,000  Level Fort Worth Center
04:37PM 33.4844 -101.5103 314° West 424 488 36,000  Level Fort Worth Center
04:38PM 33.5625 -101.6111 313° West 424 488 36,000  Level Fort Worth Center
04:39PM 33.6483 -101.7200 313° West 432 497 36,000  Level Fort Worth Center
04:40PM 33.7261 -101.8239 312° West 423 487 36,000  Level Fort Worth Center
04:41PM 33.8019 -101.9200 314° West 434 499 36,000  Level Fort Worth Center
04:42PM 33.8878 -102.0322 313° West 423 487 36,000  Level Fort Worth Center
04:43PM 33.9614 -102.1286 313° West 418 481 36,000  Level Fort Worth Center
04:44PM 34.0467 -102.2436 312° West 418 481 36,000  Level Fort Worth Center
04:45PM 34.1181 -102.3353 313° West 418 481 36,000  Level Fort Worth Center
04:46PM 34.1517 -102.3797 312° West 426 490 36,000  Level Albuquerque Center
04:47PM 34.2428 -102.5008 312° West 425 489 36,000  Level Albuquerque Center
04:48PM 34.3225 -102.6067 312° West 425 489 36,000  Level Albuquerque Center
04:49PM 34.4014 -102.7117 312° West 421 484 36,000  Level Albuquerque Center
04:50PM 34.4803 -102.8175 312° West 421 484 36,000  Level Albuquerque Center
04:51PM 34.5481 -102.9411 304° West 416 479 36,000  Level Albuquerque Center
04:52PM 34.6106 -103.0606 302° West 416 479 36,000  Level Albuquerque Center
04:53PM 34.6728 -103.1792 303° West 415 478 36,000  Level Albuquerque Center
04:54PM 34.7447 -103.3189 302° West 414 476 36,000  Level Albuquerque Center
04:55PM 34.8064 -103.4372 302° West 412 474 36,000  Level Albuquerque Center
04:56PM 34.8681 -103.5561 302° West 412 474 36,000  Level Albuquerque Center
04:57PM 34.9294 -103.6756 302° West 412 474 36,000  Level Albuquerque Center
04:58PM 34.9906 -103.7964 302° West 414 476 36,000  Level Albuquerque Center
04:59PM 35.0514 -103.9158 302° West 412 474 36,000  Level Albuquerque Center
05:00PM 35.1183 -104.0475 302° West 414 476 36,000  Level Albuquerque Center
05:01PM 35.1783 -104.1672 302° West 413 475 36,000  Level Albuquerque Center
05:02PM 35.2381 -104.2853 302° West 409 471 36,000  Level Albuquerque Center
05:03PM 35.2975 -104.4042 302° West 411 473 36,000  Level Albuquerque Center
05:04PM 35.3567 -104.5258 301° West 407 468 36,000  Level Albuquerque Center
05:05PM 35.4258 -104.6664 301° West 408 470 36,000  Level Albuquerque Center
05:07PM 35.4861 -104.7872 302° West 411 473 36,000  Level Albuquerque Center
05:08PM 35.5472 -104.9103 301° West 416 479 36,000  Level Albuquerque Center
05:09PM 35.6069 -105.0347 301° West 420 483 36,000  Level Albuquerque Center
05:10PM 35.6675 -105.1586 301° West 418 481 36,000  Level Albuquerque Center
05:11PM 35.7172 -105.2908 295° West 422 486 36,000  Level Albuquerque Center
05:12PM 35.7683 -105.4219 296° West 422 486 36,000  Level Albuquerque Center
05:13PM 35.8181 -105.5533 295° West 423 487 36,000  Level Albuquerque Center
05:14PM 35.8686 -105.6828 296° West 422 486 36,000  Level Albuquerque Center
05:15PM 35.9275 -105.8386 295° West 421 484 36,000  Level Albuquerque Center
05:16PM 35.9767 -105.9692 295° West 420 483 36,000  Level Albuquerque Center
05:17PM 36.0256 -106.0978 295° West 419 482 36,000  Level Albuquerque Center
05:18PM 36.0739 -106.2289 295° West 419 482 36,000  Level Albuquerque Center
05:19PM 36.1231 -106.3606 295° West 422 486 36,000  Level Albuquerque Center
05:20PM 36.1714 -106.4925 294° West 422 486 36,000  Level Albuquerque Center
05:21PM 36.2294 -106.6469 295° West 416 479 36,000  Level Albuquerque Center
05:22PM 36.2744 -106.7714 294° West 416 479 36,000  Level Albuquerque Center
05:24PM 36.3731 -107.0428 294° West 417 480 36,000  Level Albuquerque Center
05:25PM 36.4267 -107.1892 295° West 417 480 36,000  Level Albuquerque Center
05:26PM 36.4711 -107.3156 294° West 418 481 36,000  Level Albuquerque Center
05:27PM 36.5247 -107.4633 294° West 420 483 36,000  Level Albuquerque Center
05:28PM 36.5700 -107.5881 294° West 417 480 36,000  Level Albuquerque Center
05:29PM 36.6133 -107.7139 293° West 420 483 36,000  Level Denver Center
05:30PM 36.6656 -107.8611 294° West 418 481 36,000  Level Denver Center
05:31PM 36.7100 -107.9886 294° West 420 483 36,000  Level Denver Center
05:32PM 36.7617 -108.1353 294° West 415 478 36,000  Level Denver Center
05:34PM 36.8081 -108.2639 294° West 424 488 36,000  Level Denver Center
05:35PM 36.8678 -108.4325 294° West 419 482 36,000  Level Denver Center
05:36PM 36.9122 -108.5614 293° West 421 484 36,000  Level Denver Center
05:37PM 36.9644 -108.7108 294° West 421 484 36,000  Level Denver Center
05:38PM 37.0094 -108.8397 294° West 423 487 36,000  Level Denver Center
05:39PM 37.0617 -108.9897 294° West 423 487 36,000  Level Denver Center
05:40PM 37.1067 -109.1197 293° West 427 491 36,000  Level Denver Center
05:41PM 37.1589 -109.2717 293° West 427 491 36,000  Level Denver Center
05:42PM 37.2031 -109.4011 293° West 423 487 36,000  Level Denver Center
05:43PM 37.2547 -109.5506 294° West 420 483 36,000  Level Denver Center
05:44PM 37.2992 -109.6817 293° West 424 488 36,000  Level Denver Center
05:45PM 37.3508 -109.8339 293° West 425 489 36,000  Level Denver Center
05:46PM 37.3933 -109.9647 292° West 424 488 36,000  Level Denver Center
05:47PM 37.4453 -110.1172 293° West 425 489 36,000  Level Denver Center
05:48PM 37.4894 -110.2492 293° West 426 490 36,000  Level Denver Center
05:49PM 37.5322 -110.3814 292° West 427 491 36,000  Level Denver Center
05:50PM 37.5817 -110.5353 292° West 427 491 36,000  Level Denver Center
05:51PM 37.6286 -110.6747 293° West 432 497 36,000  Level Denver Center
05:52PM 37.6728 -110.8142 292° West 431 496 36,000  Level Denver Center
05:53PM 37.7189 -110.9536 293° West 430 495 36,000  Level Denver Center
05:54PM 37.7722 -111.1189 292° West 426 490 36,000  Level Denver Center
05:54PM 37.7806 -111.1469 291° West 427 491 36,000  Level Salt Lake Center
05:56PM 37.8247 -111.2833 292° West 423 487 36,000  Level Salt Lake Center
05:57PM 37.8686 -111.4200 292° West 421 484 36,000  Level Salt Lake Center
05:57PM 37.9036 -111.5297 292° West 421 484 36,000  Level Denver Center
05:58PM 37.9219 -111.5842 293° West 420 483 36,000  Level Salt Lake Center
05:59PM 37.9619 -111.7183 291° West 411 473 36,000  Level Salt Lake Center
06:00PM 38.0047 -111.8528 292° West 411 473 36,000  Level Salt Lake Center
06:01PM 38.0486 -111.9892 292° West 417 480 36,000  Level Salt Lake Center
06:02PM 38.0764 -112.1289 284° West 416 479 36,000  Level Salt Lake Center
06:03PM 38.0881 -112.2758 276° West 419 482 36,000  Level Salt Lake Center
06:04PM 38.1042 -112.4508 277° West 419 482 36,000  Level Salt Lake Center
06:05PM 38.1161 -112.5958 276° West 418 481 36,000  Level Salt Lake Center
06:06PM 38.1289 -112.7419 276° West 419 482 36,000  Level Salt Lake Center
06:07PM 38.1400 -112.8881 276° West 420 483 36,000  Level Salt Lake Center
06:08PM 38.1514 -113.0350 276° West 421 484 36,000  Level Salt Lake Center
06:09PM 38.1633 -113.1819 276° West 421 484 36,000  Level Salt Lake Center
06:10PM 38.1742 -113.3283 275° West 420 483 36,000  Level Salt Lake Center
06:11PM 38.1883 -113.5042 276° West 420 483 36,000  Level Salt Lake Center
06:12PM 38.1983 -113.6500 275° West 418 481 36,000  Level Salt Lake Center
06:13PM 38.2089 -113.7969 275° West 419 482 36,000  Level Salt Lake Center
06:14PM 38.2197 -113.9461 275° West 423 487 36,000  Level Salt Lake Center
06:15PM 38.2303 -114.0939 275° West 422 486 36,000  Level Salt Lake Center
06:16PM 38.2414 -114.2414 276° West 421 484 36,000  Level Salt Lake Center
06:17PM 38.2494 -114.3864 274° West 415 478 36,000  Level Salt Lake Center
06:18PM 38.2394 -114.5633 266° West 417 480 36,000  Level Salt Lake Center
06:19PM 38.2314 -114.7117 266° West 420 483 36,000  Level Salt Lake Center
06:20PM 38.2231 -114.8603 266° West 422 486 36,000  Level Salt Lake Center
06:21PM 38.2128 -115.0106 265° West 427 491 36,000  Level Salt Lake Center
06:22PM 38.2036 -115.1617 266° West 430 495 36,000  Level Salt Lake Center
06:23PM 38.1933 -115.3142 265° West 434 499 36,000  Level Salt Lake Center
06:24PM 38.1825 -115.4656 265° West 435 501 36,000  Level Salt Lake Center
06:25PM 38.1703 -115.6500 265° West 436 502 36,000  Level Salt Lake Center
06:26PM 38.1603 -115.7989 265° West 428 493 36,000  Level Salt Lake Center
06:27PM 38.1489 -115.9497 265° West 428 493 36,000  Level Salt Lake Center
06:28PM 38.1378 -116.1000 265° West 427 491 36,000  Level Salt Lake Center
06:29PM 38.1267 -116.2506 265° West 428 493 36,000  Level Salt Lake Center
06:30PM 38.1153 -116.4011 265° West 429 494 36,000  Level Salt Lake Center
06:31PM 38.1039 -116.5511 265° West 427 491 36,000  Level Salt Lake Center
06:32PM 38.0922 -116.7006 264° West 426 490 36,000  Level Salt Lake Center
06:33PM 38.0803 -116.8519 264° West 430 495 36,000  Level Salt Lake Center
06:35PM 38.0658 -117.0325 264° West 426 490 36,000  Level Salt Lake Center
06:36PM 38.0550 -117.1553 264° West 427 491 36,000  Level Salt Lake Center
06:37PM 38.0400 -117.3442 264° West 434 499 36,000  Level Oakland Center
06:38PM 38.0272 -117.4961 264° West 430 495 36,000  Level Oakland Center
06:39PM 38.0144 -117.6481 264° West 431 496 36,000  Level Oakland Center
06:40PM 38.0011 -117.8003 264° West 433 498 36,000  Level Oakland Center
06:41PM 37.9819 -117.9819 262° West 434 499 36,000  Level Oakland Center
06:42PM 37.9647 -118.1339 262° West 434 499 36,000  Level Oakland Center
06:43PM 37.9486 -118.2853 262° West 434 499 36,000  Level Oakland Center
06:44PM 37.9311 -118.4367 262° West 434 499 36,000  Level Oakland Center
06:45PM 37.9144 -118.5894 262° West 437 503 36,000  Level Oakland Center
06:46PM 37.8978 -118.7408 262° West 435 501 36,000  Level Oakland Center
06:47PM 37.8831 -118.8942 263° West 436 502 36,000  Level Oakland Center
06:48PM 37.8639 -119.0514 261° West 440 506 36,000  Level Oakland Center
06:49PM 37.8444 -119.2044 261° West 440 506 36,000  Level Oakland Center
06:50PM 37.8275 -119.3581 262° West 444 511 36,000  Level Oakland Center
06:51PM 37.8114 -119.5092 262° West 435 501 36,000  Level Oakland Center
06:52PM 37.7925 -119.6628 261° West 440 506 36,000  Level Oakland Center
06:53PM 37.7736 -119.8158 261° West 441 507 36,000  Level Oakland Center
06:54PM 37.7547 -119.9694 261° West 442 509 36,000  Level Oakland Center
06:55PM 37.7317 -120.1539 261° West 442 509 36,000 -480 Level Oakland Center
06:56PM 37.7131 -120.3083 261° West 444 511 35,100 -1,920 Descending Oakland Center
06:57PM 37.6922 -120.4692 261° West 459 528 32,200 -2,940 Descending Oakland Center
06:58PM 37.6711 -120.6311 261° West 465 535 29,200 -2,880 Descending Oakland Center
06:59PM 37.6500 -120.7333 255° West 465 535 27,500 -2,940 Descending Northern Cal TRACON
07:01PM 37.6167 -121.0333 262° West 448 516 21,600 -3,000 Descending Northern Cal TRACON
07:02PM 37.6000 -121.2000 263° West 422 486 18,600 -2,340 Descending Northern Cal TRACON
07:05PM 37.5709 -121.3830 261° West  Level FlightAware Approximate
07:05PM 37.5286 -121.6456 261° West 378 435 11,000  Level Oakland Center
07:06PM 37.5167 -121.7167 258° West 355 409 10,500 -1,080 Descending Northern Cal TRACON
07:07PM 37.4894 -121.8581 256° West 293 337 8,800 -1,020 Descending Oakland Center
07:08PM 37.4817 -121.9492 264° West 275 316 7,900 -1,320 Descending Oakland Center
07:09PM 37.5000 -122.0000 294° West 249 287 7,000 -1,680 Descending Northern Cal TRACON
07:10PM 37.5350 -122.1122 291° West 253 291 4,600 -1,500 Descending Oakland Center
07:11PM 37.5500 -122.1500 297° West 234 269 4,100 -840 Descending Northern Cal TRACON
07:11PM 37.5578 -122.1858 285° West 236 272 3,800 -480 Descending Oakland Center